Time;durP1;ratioP1;P1;durP2;ratioP2;P2;SDS_P1;SDS_P2;PMS_P1;PMS_P2;Temp;Humidity;BMP_temperature;BMP_pressure;BME280_temperature;BME280_humidity;BME280_pressure;Samples;Min_cycle;Max_cycle;Signal;HPM_P1;HPM_P2
2022/09/26 00:14:47;;;;;;;40.00;23.50;;;;;;;8.66;98.15;99592.59;657301;1277;140638;-87
2022/09/26 00:29:50;;;;;;;42.50;25.10;;;;;;;8.56;98.44;99584.80;659892;1277;139235;-87
2022/09/26 00:44:53;;;;;;;30.40;18.90;;;;;;;8.43;97.91;99577.52;667543;1278;139261;-87
2022/09/26 01:00:04;;;;;;;35.30;21.10;;;;;;;8.27;97.80;99572.69;663213;1277;139659;-89
2022/09/26 01:15:09;;;;;;;45.90;23.90;;;;;;;8.18;97.52;99566.55;657387;1277;140520;-88
2022/09/26 01:30:25;;;;;;;59.20;32.50;;;;;;;8.12;97.21;99550.36;656530;1277;139226;-88
2022/09/26 01:45:54;;;;;;;54.40;33.50;;;;;;;8.11;97.25;99536.87;657217;1277;141006;-87
2022/09/26 02:01:04;;;;;;;60.20;32.90;;;;;;;8.05;97.89;99524.04;657420;1277;141297;-89
2022/09/26 02:16:12;;;;;;;60.90;34.30;;;;;;;8.02;97.96;99506.30;657181;1277;140330;-86
2022/09/26 02:31:21;;;;;;;50.30;30.90;;;;;;;7.92;98.59;99501.10;657339;1277;140361;-89
2022/09/26 02:46:58;;;;;;;54.70;31.90;;;;;;;7.89;98.70;99498.73;659309;1277;139212;-88
2022/09/26 03:02:14;;;;;;;51.80;29.50;;;;;;;7.74;99.01;99488.91;660276;1278;139285;-86
2022/09/26 03:17:25;;;;;;;69.60;33.90;;;;;;;7.70;99.73;99480.41;659914;1277;139522;-86
2022/09/26 03:32:29;;;;;;;53.40;31.10;;;;;;;7.65;99.83;99464.54;658461;1277;140607;-87
2022/09/26 03:47:33;;;;;;;89.60;40.00;;;;;;;7.84;99.27;99453.63;662652;1277;140340;-89
2022/09/26 04:02:38;;;;;;;105.20;52.70;;;;;;;7.77;100.00;99447.03;669223;1278;140335;-87
2022/09/26 04:17:48;;;;;;;74.50;40.20;;;;;;;8.01;100.00;99441.05;665779;1277;139839;-89
2022/09/26 04:32:53;;;;;;;111.50;54.00;;;;;;;8.16;100.00;99427.06;658421;1277;140261;-89
2022/09/26 04:48:11;;;;;;;70.50;42.20;;;;;;;8.29;100.00;99430.36;658644;1277;140075;-88
2022/09/26 05:03:36;;;;;;;172.10;66.90;;;;;;;8.41;100.00;99423.16;657687;1277;139030;-88
2022/09/26 05:18:40;;;;;;;109.50;49.80;;;;;;;8.70;100.00;99422.06;657657;1277;140840;-88
2022/09/26 05:33:45;;;;;;;106.80;51.80;;;;;;;9.09;100.00;99408.32;657472;1277;140452;-87
2022/09/26 05:48:49;;;;;;;80.80;43.40;;;;;;;9.47;100.00;99401.50;657715;1277;141248;-88
2022/09/26 06:03:56;;;;;;;73.00;40.20;;;;;;;9.90;100.00;99398.88;657622;1277;140763;-89
2022/09/26 06:19:01;;;;;;;182.00;78.40;;;;;;;10.28;100.00;99398.94;656797;1277;141638;-86
2022/09/26 06:34:06;;;;;;;93.50;50.50;;;;;;;10.54;100.00;99403.16;657489;1277;141558;-87
2022/09/26 06:49:22;;;;;;;106.50;60.50;;;;;;;10.82;100.00;99397.89;657242;1277;141247;-88
2022/09/26 07:04:36;;;;;;;92.60;52.40;;;;;;;11.38;100.00;99389.66;657410;1277;140059;-87
2022/09/26 07:19:52;;;;;;;77.60;43.00;;;;;;;12.49;100.00;99377.50;659014;1277;140497;-88
2022/09/26 07:35:25;;;;;;;39.60;26.30;;;;;;;14.16;100.00;99374.01;659576;1277;139796;-87
2022/09/26 07:50:28;;;;;;;24.20;15.80;;;;;;;15.67;98.05;99364.61;657117;1278;140860;-87
2022/09/26 08:05:55;;;;;;;18.70;14.80;;;;;;;16.52;92.70;99362.98;658216;1279;139074;-88
2022/09/26 08:21:04;;;;;;;17.80;12.70;;;;;;;17.37;89.79;99376.55;663530;1277;140339;-87
2022/09/26 08:36:11;;;;;;;17.60;14.20;;;;;;;17.77;84.54;99385.23;658290;1277;139599;-87
2022/09/26 08:51:47;;;;;;;18.30;14.70;;;;;;;17.43;83.04;99381.30;657286;1278;141220;-88
2022/09/26 09:07:02;;;;;;;16.20;12.50;;;;;;;17.94;83.47;99369.88;657348;1280;140461;-88
2022/09/26 09:22:31;;;;;;;13.40;9.70;;;;;;;18.66;80.35;99357.30;656734;1277;141322;-87
2022/09/26 09:37:47;;;;;;;14.10;9.40;;;;;;;19.90;71.62;99342.58;657247;1277;140974;-89
2022/09/26 09:53:18;;;;;;;12.40;9.00;;;;;;;20.92;68.85;99336.63;656688;1277;138673;-87
2022/09/26 10:08:32;;;;;;;11.90;7.80;;;;;;;21.10;64.48;99334.39;657226;1277;139167;-87
2022/09/26 10:23:43;;;;;;;10.30;8.10;;;;;;;21.19;62.48;99332.70;658548;1277;139657;-86
2022/09/26 10:54:41;;;;;;;10.90;8.50;;;;;;;22.05;60.70;99311.28;656695;1277;139174;-86
2022/09/26 11:09:46;;;;;;;9.10;6.60;;;;;;;21.98;59.67;99307.84;657428;1277;139607;-85
2022/09/26 11:25:27;;;;;;;10.40;6.20;;;;;;;22.08;59.25;99305.41;667048;1277;138723;-85
2022/09/26 11:40:49;;;;;;;10.70;6.60;;;;;;;21.25;60.23;99301.92;656068;1278;1149092;-87
2022/09/26 11:56:14;;;;;;;15.20;7.40;;;;;;;20.86;61.23;99293.10;656654;1277;139652;-87
2022/09/26 12:11:55;;;;;;;8.20;6.80;;;;;;;20.82;62.24;99284.26;658781;1277;139661;-86
2022/09/26 12:27:16;;;;;;;20.70;13.00;;;;;;;20.63;62.88;99275.30;658264;1277;138731;-84
2022/09/26 12:42:37;;;;;;;9.40;6.00;;;;;;;22.99;60.50;99258.66;656479;1277;139104;-85
2022/09/26 12:57:46;;;;;;;7.70;5.70;;;;;;;23.31;55.90;99247.61;657451;1279;139089;-86
2022/09/26 13:13:22;;;;;;;8.00;5.80;;;;;;;22.67;57.48;99234.39;656691;1277;138806;-85
2022/09/26 13:28:41;;;;;;;6.70;5.30;;;;;;;21.72;58.98;99231.08;656931;1277;139031;-85
2022/09/26 13:44:40;;;;;;;9.10;6.40;;;;;;;21.88;60.11;99221.34;656535;1277;138958;-86
2022/09/26 13:59:53;;;;;;;9.40;7.10;;;;;;;21.96;58.87;99216.32;657845;1277;140309;-85
2022/09/26 14:15:23;;;;;;;8.20;5.40;;;;;;;21.43;59.21;99205.41;658067;1278;139557;-84
2022/09/26 14:30:29;;;;;;;7.50;6.20;;;;;;;26.49;53.85;99199.06;656483;1278;139029;-85
2022/09/26 14:45:35;;;;;;;17.40;14.90;;;;;;;30.59;46.45;99182.35;656575;1277;138761;-86
2022/09/26 15:00:43;;;;;;;7.70;6.10;;;;;;;24.34;51.05;99169.02;656925;1280;139449;-86
2022/09/26 15:16:20;;;;;;;20.90;17.30;;;;;;;21.44;56.79;99165.09;667701;1278;138567;-86
2022/09/26 15:31:35;;;;;;;16.40;14.50;;;;;;;20.34;60.86;99170.14;659747;1278;140387;-85
2022/09/26 15:46:40;;;;;;;249.70;84.40;;;;;;;19.68;63.76;99162.42;659294;1277;139693;-86
2022/09/26 16:01:47;;;;;;;192.60;71.10;;;;;;;19.08;66.11;99159.95;659905;1277;139630;-86
2022/09/26 16:17:20;;;;;;;106.80;38.60;;;;;;;18.45;68.79;99155.68;660475;1277;140666;-86
2022/09/26 16:32:24;;;;;;;31.70;18.90;;;;;;;17.91;71.31;99148.47;657807;1277;139737;-87
2022/09/26 16:47:42;;;;;;;107.90;67.80;;;;;;;17.61;73.64;99145.23;658085;1277;139773;-85
2022/09/26 17:02:46;;;;;;;33.80;19.90;;;;;;;17.43;75.62;99151.53;657454;1277;141344;-86
2022/09/26 17:17:52;;;;;;;30.20;19.30;;;;;;;17.19;78.71;99164.61;657554;1279;139403;-87
2022/09/26 17:32:58;;;;;;;72.50;38.00;;;;;;;17.02;81.90;99172.73;659514;1277;140019;-85
2022/09/26 17:48:18;;;;;;;60.70;35.50;;;;;;;16.97;82.56;99170.13;662370;1277;141062;-85
2022/09/26 18:03:26;;;;;;;57.80;33.30;;;;;;;17.01;83.19;99166.02;662305;1277;139186;-85
2022/09/26 18:18:32;;;;;;;56.70;33.50;;;;;;;16.89;84.40;99154.10;659688;1277;139856;-84
2022/09/26 18:33:37;;;;;;;49.60;28.90;;;;;;;16.63;85.00;99139.08;660630;1277;140734;-86
2022/09/26 18:48:43;;;;;;;236.20;112.90;;;;;;;16.30;86.34;99133.95;672575;1276;139991;-87
2022/09/26 19:03:48;;;;;;;21.00;14.60;;;;;;;16.09;88.78;99144.77;662029;1277;140566;-86
2022/09/26 19:18:52;;;;;;;46.80;24.50;;;;;;;15.99;90.65;99143.38;660443;1277;140253;-87
2022/09/26 19:33:57;;;;;;;35.30;19.80;;;;;;;15.94;91.60;99145.73;664578;1277;139427;-87
2022/09/26 19:49:03;;;;;;;751.90;347.00;;;;;;;15.70;93.28;99151.23;659812;1277;139254;-88
2022/09/26 20:04:17;;;;;;;61.30;36.50;;;;;;;15.57;95.96;99158.52;661125;1277;139649;-84
2022/09/26 20:19:32;;;;;;;18.90;14.90;;;;;;;15.50;97.69;99158.55;657745;1277;139207;-85
2022/09/26 20:34:36;;;;;;;19.50;13.80;;;;;;;15.35;99.42;99146.84;658064;1277;139934;-84
2022/09/26 20:50:00;;;;;;;20.40;14.30;;;;;;;15.18;100.00;99138.19;657601;1277;139109;-85
2022/09/26 21:05:23;;;;;;;23.80;15.40;;;;;;;15.06;100.00;99125.84;657704;1277;140745;-84
2022/09/26 21:20:29;;;;;;;26.20;17.20;;;;;;;14.94;100.00;99118.24;657406;1277;139198;-83
2022/09/26 21:35:41;;;;;;;23.50;15.70;;;;;;;14.81;100.00;99104.01;657462;1277;140142;-84
2022/09/26 21:50:52;;;;;;;24.70;16.60;;;;;;;14.63;100.00;99098.09;656685;1277;139229;-85
2022/09/26 22:06:03;;;;;;;21.70;15.10;;;;;;;14.47;100.00;99090.84;657372;1277;139441;-84
2022/09/26 22:21:10;;;;;;;22.90;15.10;;;;;;;14.36;100.00;99085.17;657592;1277;139816;-85
2022/09/26 22:36:15;;;;;;;22.10;15.00;;;;;;;14.14;100.00;99076.57;657501;1279;139498;-84
2022/09/26 22:51:18;;;;;;;23.10;15.40;;;;;;;14.00;100.00;99056.86;658545;1277;139600;-85
2022/09/26 23:06:23;;;;;;;27.50;15.50;;;;;;;13.81;100.00;99052.10;657706;1277;139600;-86
2022/09/26 23:21:26;;;;;;;24.40;15.70;;;;;;;13.87;100.00;99047.99;657191;1277;139374;-84
2022/09/26 23:36:29;;;;;;;22.90;14.10;;;;;;;13.79;100.00;99037.60;657734;1277;1038431;-83
2022/09/26 23:51:33;;;;;;;22.00;14.90;;;;;;;13.86;100.00;99035.36;658233;1277;139636;-86
